Terminal Aerodrome Forecast
Issued by NWS Spokane, WA

Home | Current Version | Previous Version | Text Only | Print | Product List | Glossary On
Versions: 1 2 3 4 5 6 7 8 9 10 11 12 13 14 15 16 17 18 19 20 21 22 23 24 25 26 27 28 29 30 31 32 33 34
000
FTUS46 KOTX 201128
TAFLWS
TAF
KLWS 201128Z 2012/2112 17012KT P6SM -RA SCT040 OVC060
     FM201500 VRB04KT P6SM -RA BKN040 BKN080
     FM201900 29008KT P6SM -SHRA BKN020 OVC050
     FM210500 16006KT P6SM VCSH BKN015 BKN060
     FM210900 16003KT P6SM SCT020 OVC040=

USA.gov is the U.S. government's official web portal to all federal, state and local government web resources and services.